N172LF KMSP-KMSP
Flight info
| Callsign | N172LF |
|---|---|
| Flight time | 0h 9m |
| Altitude | VFR |
| Route | |
| Aircraft | C210/L-VGD/C |
Departure
| Time | 2026-05-07 06:39 |
|---|---|
| Airport | Minneapolis–Saint Paul International Airport / Wold–Chamberlain Field (KMSP) |
Arrival
| Time | 2026-05-07 06:48 |
|---|---|
| Airport | Minneapolis–Saint Paul International Airport / Wold–Chamberlain Field (KMSP) |
| Time | Latitude | Longitude | Altitude | Speed | Heading |
|---|---|---|---|---|---|
| 2026-05-07 06:39 | 45.06353 | -93.52537 | 3494 ft | 154 kts | 132° |
| 2026-05-07 06:39 | 45.05663 | -93.51379 | 3482 ft | 155 kts | 131° |
| 2026-05-07 06:39 | 45.04969 | -93.50209 | 3477 ft | 155 kts | 131° |
| 2026-05-07 06:39 | 45.04284 | -93.49060 | 3475 ft | 155 kts | 131° |
| 2026-05-07 06:40 | 45.03591 | -93.47895 | 3475 ft | 155 kts | 131° |
| 2026-05-07 06:40 | 45.02897 | -93.46731 | 3474 ft | 155 kts | 131° |
| 2026-05-07 06:40 | 45.02203 | -93.45567 | 3475 ft | 155 kts | 131° |
| 2026-05-07 06:40 | 45.01508 | -93.44403 | 3476 ft | 155 kts | 131° |
| 2026-05-07 06:41 | 45.00814 | -93.43239 | 3481 ft | 154 kts | 131° |
| 2026-05-07 06:41 | 45.00108 | -93.42058 | 3372 ft | 160 kts | 131° |
| 2026-05-07 06:41 | 44.99380 | -93.40838 | 3235 ft | 164 kts | 131° |
| 2026-05-07 06:41 | 44.98637 | -93.39595 | 3067 ft | 166 kts | 131° |
| 2026-05-07 06:42 | 44.97889 | -93.38344 | 2888 ft | 167 kts | 130° |
| 2026-05-07 06:42 | 44.97142 | -93.37094 | 2709 ft | 166 kts | 130° |
| 2026-05-07 06:42 | 44.96398 | -93.35850 | 2528 ft | 166 kts | 130° |
| 2026-05-07 06:42 | 44.95656 | -93.34610 | 2347 ft | 164 kts | 130° |
| 2026-05-07 06:43 | 44.94836 | -93.33738 | 2599 ft | 139 kts | 156° |
| 2026-05-07 06:43 | 44.93908 | -93.33194 | 2590 ft | 149 kts | 160° |
| 2026-05-07 06:43 | 44.93014 | -93.32489 | 2572 ft | 148 kts | 135° |
| 2026-05-07 06:43 | 44.92478 | -93.31320 | 2446 ft | 133 kts | 118° |
| 2026-05-07 06:44 | 44.91814 | -93.30480 | 2400 ft | 136 kts | 151° |
| 2026-05-07 06:44 | 44.90984 | -93.29710 | 2355 ft | 149 kts | 141° |
| 2026-05-07 06:44 | 44.90269 | -93.28684 | 2279 ft | 144 kts | 129° |
| 2026-05-07 06:44 | 44.89619 | -93.27666 | 2161 ft | 134 kts | 135° |
| 2026-05-07 06:45 | 44.89009 | -93.26699 | 1937 ft | 130 kts | 128° |
| 2026-05-07 06:45 | 44.88479 | -93.25684 | 1804 ft | 127 kts | 126° |
| 2026-05-07 06:45 | 44.87952 | -93.24647 | 1831 ft | 133 kts | 126° |
| 2026-05-07 06:45 | 44.87387 | -93.23585 | 1842 ft | 138 kts | 127° |
| 2026-05-07 06:46 | 44.86815 | -93.22525 | 1733 ft | 131 kts | 128° |
| 2026-05-07 06:46 | 44.86247 | -93.21578 | 1598 ft | 125 kts | 132° |
| 2026-05-07 06:46 | 44.85641 | -93.20669 | 1516 ft | 132 kts | 133° |
| 2026-05-07 06:46 | 44.85357 | -93.19571 | 1426 ft | 110 kts | 84° |
| 2026-05-07 06:47 | 44.85689 | -93.18690 | 1285 ft | 95 kts | 50° |
| 2026-05-07 06:47 | 44.86260 | -93.18204 | 1228 ft | 104 kts | 351° |
| 2026-05-07 06:47 | 44.86774 | -93.18839 | 1048 ft | 98 kts | 302° |
| 2026-05-07 06:47 | 44.87152 | -93.19668 | 953 ft | 101 kts | 300° |
| 2026-05-07 06:48 | 44.87509 | -93.20487 | 845 ft | 89 kts | 300° |
| 2026-05-07 06:48 | 44.87778 | -93.21097 | 831 ft | 56 kts | 303° |
| 2026-05-07 06:48 | 44.87881 | -93.21336 | 827 ft | 17 kts | 308° |
| 2026-05-07 06:48 | 44.87938 | -93.21355 | 828 ft | 5 kts | 34° |
| 2026-05-07 06:49 | 44.87976 | -93.21329 | 829 ft | 6 kts | 25° |
| 2026-05-07 06:49 | 44.87979 | -93.21328 | 829 ft | 0 kts | 11° |
| 2026-05-07 06:49 | 44.87957 | -93.21344 | 828 ft | 0 kts | 202° |
| 2026-05-07 06:49 | 44.87929 | -93.21365 | 828 ft | 19 kts | 209° |
| 2026-05-07 06:50 | 44.87832 | -93.21458 | 826 ft | 14 kts | 239° |
| 2026-05-07 06:50 | 44.87851 | -93.21561 | 827 ft | 11 kts | 302° |
| 2026-05-07 06:50 | 44.87875 | -93.21621 | 826 ft | 0 kts | 304° |
| 2026-05-07 06:50 | 44.87901 | -93.21686 | 827 ft | 23 kts | 300° |
| 2026-05-07 06:51 | 44.87938 | -93.21766 | 829 ft | 4 kts | 306° |
| 2026-05-07 06:51 | 44.87980 | -93.21868 | 830 ft | 26 kts | 304° |
| 2026-05-07 06:51 | 44.88037 | -93.21994 | 831 ft | 3 kts | 153° |
| 2026-05-07 06:51 | 44.88033 | -93.21988 | 831 ft | 3 kts | 120° |
| 2026-05-07 06:52 | 44.87978 | -93.21861 | 830 ft | 14 kts | 112° |
| 2026-05-07 06:52 | 44.87936 | -93.21763 | 829 ft | 6 kts | 115° |
| 2026-05-07 06:52 | 44.87892 | -93.21674 | 826 ft | 10 kts | 116° |
| 2026-05-07 06:52 | 44.87849 | -93.21603 | 827 ft | 7 kts | 183° |
| 2026-05-07 06:53 | 44.87816 | -93.21637 | 827 ft | 13 kts | 234° |
| 2026-05-07 06:53 | 44.87807 | -93.21744 | 827 ft | 11 kts | 202° |
| 2026-05-07 06:53 | 44.87785 | -93.21747 | 827 ft | 0 kts | 179° |